Latest Weather Observations for Cape Flattery

IDQ60801

Issued at 3:32 pm EST Monday 23 September 2019 (issued every 10 minutes, with the page automatically refreshed every 10 minutes)

About weather observations | Map of weather stations | Latest weather observations for QLD | Other Formats
Station Details ID: 031213 Name: CAPE FLATTERY Lat: -14.97 Lon: 145.31 Height: 18.5 m
Data from the previous 72 hours. | See also: Recent months at Cape Flattery
Date/Time
EST
Temp
°C
App
Temp
°C
Dew
Point
°C
Rel
Hum
%
Delta-T
°C
Wind Press
QNH
hPa
Press
MSL
hPa
Rain since
9am
mm
Dir  Spd
km/h
Gust
km/h
Spd
kts
Gust
kts
23/03:00pm 27.4 25.4 20.0 64 4.8 SE 30 43 16 23 1017.5 1017.4 0.2
23/02:30pm 27.7 25.6 19.8 62 5.1 SE 30 39 16 21 1017.6 1017.5 0.2
23/02:00pm 27.4 24.8 19.5 62 5.1 SE 32 44 17 24 1018.0 1017.9 0.2
23/01:30pm 27.8 24.7 18.8 58 5.8 SE 33 44 18 24 1018.5 1018.4 0.2
23/01:00pm 27.3 23.6 19.1 61 5.3 SE 37 48 20 26 1018.7 1018.6 0.2
23/12:30pm 28.0 25.4 19.8 61 5.3 SE 33 44 18 24 1018.9 1018.8 0.2
23/12:00pm 27.5 24.5 19.8 63 5.0 SE 35 44 19 24 1019.2 1019.1 0.2
23/11:30am 26.3 23.7 19.4 66 4.5 SSE 32 43 17 23 1019.8 1019.7 0.2
23/11:00am 27.0 24.8 19.6 64 4.8 SE 30 41 16 22 1020.1 1020.0 0.0
23/10:30am 25.3 23.7 20.8 76 3.0 SE 30 50 16 27 1020.5 1020.4 0.0
23/10:28am 24.6 22.4 20.3 77 2.8 SE 32 50 17 27 1020.5 1020.4 0.0
23/10:00am 26.7 23.5 20.3 68 4.2 SE 37 48 20 26 1020.6 1020.5 0.0
23/09:30am 26.7 24.2 20.1 67 4.3 SE 33 46 18 25 1020.5 1020.4 0.0
23/09:00am 24.8 22.9 20.1 75 3.0 SE 30 44 16 24 1020.5 1020.4 0.6
23/08:30am 24.8 22.9 20.1 75 3.0 SE 30 43 16 23 1020.4 1020.3 0.6
23/08:00am 25.0 23.4 20.0 74 3.2 SE 28 41 15 22 1020.0 1019.9 0.6
23/07:30am 24.7 23.1 20.0 75 3.0 SE 28 39 15 21 1019.6 1019.5 0.6
23/07:00am 23.9 23.3 19.8 78 2.6 SE 22 30 12 16 1019.5 1019.4 0.6
23/06:30am 23.2 23.0 19.8 81 2.2 SE 20 28 11 15 1019.4 1019.3 0.6
23/06:00am 23.1 22.1 19.7 81 2.2 SE 24 33 13 18 1019.2 1019.1 0.6
23/05:30am 23.1 22.1 19.7 81 2.2 SE 24 32 13 17 1018.9 1018.8 0.6
23/05:00am 23.2 21.4 19.6 80 2.3 SE 28 39 15 21 1018.7 1018.6 0.6
23/04:30am 23.3 21.6 19.7 80 2.3 SE 28 37 15 20 1018.6 1018.5 0.6
23/04:00am 23.5 21.9 20.0 81 2.3 SE 28 41 15 22 1018.5 1018.4 0.6
23/03:30am 23.3 22.6 20.2 83 2.0 SE 24 35 13 19 1018.5 1018.4 0.6
23/03:00am 23.5 22.0 20.2 82 2.1 SE 28 37 15 20 1018.6 1018.5 0.6
23/02:30am 23.0 22.3 19.4 80 2.3 SE 22 35 12 19 1018.8 1018.7 0.6
23/02:00am 23.3 22.7 20.4 84 1.9 SE 24 32 13 17 1019.2 1019.1 0.6
23/01:30am 23.1 21.8 19.9 82 2.1 SE 26 37 14 20 1019.4 1019.3 0.6
23/01:00am 23.3 22.7 20.4 84 1.9 SE 24 35 13 19 1019.8 1019.7 0.6
23/12:30am 23.2 22.2 20.5 85 1.8 SE 26 35 14 19 1020.2 1020.1 0.6
23/12:00am 23.0 22.4 21.3 90 1.1 SSE 26 33 14 18 1020.4 1020.3 0.6
 
Date/Time
EST
Temp
°C
App
Temp
°C
Dew
Point
°C
Rel
Hum
%
Delta-T
°C
Wind Press
QNH
hPa
Press
MSL
hPa
Rain since
9am
mm
Dir  Spd
km/h
Gust
km/h
Spd
kts
Gust
kts
22/11:30pm 23.0 22.0 21.3 90 1.1 SSE 28 37 15 20 1020.6 1020.5 0.6
22/11:00pm 23.1 22.3 20.8 87 1.5 SSE 26 37 14 20 1020.7 1020.6 0.6
22/10:30pm 22.6 21.0 20.1 86 1.6 SE 28 39 15 21 1020.8 1020.7 0.6
22/10:10pm 23.0 21.6 20.5 86 1.6 SE 28 46 15 25 1020.7 1020.6 0.6
22/10:00pm 22.9 21.6 20.6 87 1.5 SE 28 41 15 22 1020.6 1020.5 0.6
22/09:30pm 22.8 21.5 20.7 88 1.4 SE 28 37 15 20 1020.5 1020.4 0.6
22/09:00pm 23.0 20.7 20.5 86 1.6 SE 33 46 18 25 1020.4 1020.3 0.6
22/08:30pm 22.8 20.7 20.5 87 1.5 SE 32 41 17 22 1019.9 1019.8 0.6
22/08:00pm 22.5 22.2 21.1 92 0.9 SE 24 33 13 18 1019.8 1019.7 0.6
22/07:30pm 22.4 22.4 20.9 91 1.0 ESE 22 33 12 18 1019.5 1019.4 0.4
22/07:00pm 23.4 22.9 20.7 85 1.8 SE 24 35 13 19 1019.3 1019.2 0.0
22/06:30pm 23.4 21.3 19.8 80 2.3 SE 30 41 16 22 1018.9 1018.8 0.0
22/06:00pm 23.8 21.9 20.1 80 2.4 SE 30 43 16 23 1018.6 1018.5 0.0
22/05:30pm 24.6 21.6 19.9 75 3.0 SE 35 46 19 25 1018.2 1018.1 0.0
22/05:00pm 25.5 22.8 19.6 70 3.8 SE 33 46 18 25 1017.8 1017.7 0.0
22/04:30pm 26.1 22.9 19.5 67 4.3 SE 35 46 19 25 1017.8 1017.7 0.0
22/04:00pm 26.0 22.8 19.4 67 4.2 SE 35 46 19 25 1017.7 1017.6 0.0
22/03:30pm 25.9 22.6 19.3 67 4.2 SE 35 48 19 26 1017.6 1017.5 0.0
22/03:00pm 27.0 23.9 19.6 64 4.8 SE 35 46 19 25 1017.7 1017.6 0.0
22/02:30pm 27.5 24.4 18.8 59 5.6 SSE 33 46 18 25 1017.8 1017.7 0.0
22/02:00pm 27.6 24.9 19.7 62 5.1 SE 33 43 18 23 1018.0 1017.9 0.0
22/01:30pm 27.8 25.1 19.6 61 5.3 SE 33 46 18 25 1018.3 1018.2 0.0
22/01:00pm 27.5 24.1 19.0 59 5.5 SE 35 44 19 24 1018.6 1018.5 0.0
22/12:30pm 27.2 23.9 19.3 62 5.1 SE 35 44 19 24 1019.0 1018.9 0.0
22/12:00pm 28.4 26.0 20.4 62 5.3 SE 33 43 18 23 1019.1 1019.0 0.0
22/11:30am 27.0 25.9 20.3 66 4.4 SE 26 39 14 21 1019.5 1019.4 0.0
22/11:00am 25.9 23.6 19.3 67 4.2 SE 30 43 16 23 1019.9 1019.8 0.0
22/10:40am 27.0 24.2 19.1 62 5.1 SE 32 50 17 27 1019.8 1019.7 0.0
22/10:30am 27.3 24.7 19.9 64 4.8 SE 33 44 18 24 1019.6 1019.5 0.0
22/10:00am 25.3 24.3 20.5 75 3.1 SE 26 35 14 19 1019.6 1019.5 0.0
22/09:30am 24.7 22.4 20.2 76 2.9 SE 32 44 17 24 1019.5 1019.4 0.0
22/09:00am 25.2 24.0 20.9 77 2.8 SE 28 44 15 24 1019.5 1019.4 0.4
22/08:30am 23.5 22.3 20.8 85 1.8 SE 28 43 15 23 1019.4 1019.3 0.2
22/08:00am 23.1 22.3 20.8 87 1.5 SE 26 35 14 19 1019.2 1019.1 0.0
22/07:30am 22.7 20.5 20.4 87 1.5 SE 32 44 17 24 1018.8 1018.7 0.0
22/07:00am 23.2 21.6 20.0 82 2.1 SE 28 41 15 22 1018.4 1018.3 0.0
22/06:30am 23.0 21.2 19.6 81 2.2 SE 28 43 15 23 1018.0 1017.9 0.0
22/06:00am 23.1 20.2 19.3 79 2.4 SE 33 41 18 22 1017.6 1017.5 0.0
22/05:30am 23.0 20.6 19.2 79 2.4 SE 30 41 16 22 1017.3 1017.2 0.0
22/05:00am 22.9 20.0 18.9 78 2.5 SE 32 46 17 25 1016.9 1016.8 0.0
22/04:30am 23.2 20.3 18.9 77 2.7 SE 32 41 17 22 1016.9 1016.8 0.0
22/04:00am 23.1 20.5 18.6 76 2.8 SE 30 41 16 22 1016.8 1016.7 0.0
22/03:30am 23.2 20.7 18.1 73 3.2 SE 28 41 15 22 1016.8 1016.7 0.0
22/03:00am 23.2 20.8 18.3 74 3.1 SE 28 41 15 22 1016.8 1016.7 0.0
22/02:30am 23.2 21.0 18.7 76 2.8 SE 28 37 15 20 1016.7 1016.6 0.0
22/02:00am 23.2 19.8 18.1 73 3.2 SE 33 43 18 23 1017.0 1016.9 0.0
22/01:30am 23.3 20.8 18.8 76 2.8 SE 30 39 16 21 1017.4 1017.3 0.0
22/01:00am 23.4 20.7 18.5 74 3.1 SE 30 41 16 22 1017.7 1017.6 0.0
22/12:30am 23.4 21.2 18.7 75 3.0 SE 28 39 15 21 1017.9 1017.8 0.0
22/12:00am 23.5 20.9 18.6 74 3.1 SE 30 41 16 22 1018.0 1017.9 0.0
 
Date/Time
EST
Temp
°C
App
Temp
°C
Dew
Point
°C
Rel
Hum
%
Delta-T
°C
Wind Press
QNH
hPa
Press
MSL
hPa
Rain since
9am
mm
Dir  Spd
km/h
Gust
km/h
Spd
kts
Gust
kts
21/11:30pm 23.4 21.0 18.3 73 3.2 SE 28 39 15 21 1018.4 1018.3 0.0
21/11:00pm 23.6 21.6 19.1 76 2.9 SE 28 41 15 22 1018.3 1018.2 0.0
21/10:30pm 23.6 22.0 19.3 77 2.7 SE 26 39 14 21 1018.5 1018.4 0.0
21/10:00pm 23.6 21.6 19.1 76 2.9 SE 28 43 15 23 1018.6 1018.5 0.0
21/09:30pm 23.7 21.4 19.4 77 2.8 SE 30 43 16 23 1018.5 1018.4 0.0
21/09:00pm 23.7 22.1 20.0 80 2.4 SE 28 39 15 21 1018.3 1018.2 0.0
21/08:30pm 23.7 21.6 19.8 79 2.5 SE 30 41 16 22 1018.1 1018.0 0.0
21/08:00pm 23.7 20.9 19.4 77 2.7 SE 33 44 18 24 1017.7 1017.6 0.0
21/07:30pm 23.7 20.8 19.2 76 2.9 SE 33 44 18 24 1017.2 1017.1 0.0
21/07:00pm 23.7 20.9 19.0 75 3.0 SE 32 43 17 23 1017.0 1016.9 0.0
21/06:30pm 23.9 21.3 19.4 76 2.9 SE 32 44 17 24 1016.8 1016.7 0.0
21/06:00pm 24.1 21.1 19.0 73 3.2 SE 33 48 18 26 1016.4 1016.3 0.0
21/05:30pm 24.7 21.7 19.1 71 3.6 SE 33 46 18 25 1016.0 1015.9 0.0
21/05:00pm 25.3 21.7 18.5 66 4.3 SE 35 48 19 26 1015.9 1015.8 0.0
21/04:30pm 25.7 22.0 18.4 64 4.6 SE 35 48 19 26 1015.8 1015.7 0.0
21/04:00pm 25.8 21.7 19.2 67 4.2 SSE 39 46 21 25 1015.9 1015.8 0.0
21/03:30pm 26.0 22.4 19.4 67 4.3 SE 37 48 20 26 1016.1 1016.0 0.0
21/03:00pm 26.8 23.6 19.4 64 4.8 SE 35 48 19 26 1016.1 1016.0 0.0
21/02:30pm 26.2 22.8 18.9 64 4.7 SE 35 48 19 26 1016.4 1016.3 0.0
21/02:00pm 26.8 23.1 19.2 63 4.9 SE 37 48 20 26 1016.6 1016.5 0.0
21/01:30pm 27.1 24.3 19.4 62 5.0 SE 33 46 18 25 1016.9 1016.8 0.0
21/01:00pm 28.2 25.0 19.4 59 5.7 SE 35 46 19 25 1017.2 1017.1 0.0
21/12:30pm 28.2 24.9 19.2 58 5.8 SE 35 48 19 26 1017.8 1017.7 0.0
21/12:00pm 28.0 25.1 19.2 58 5.7 SE 33 46 18 25 1018.1 1018.0 0.0
21/11:30am 27.7 24.0 19.2 60 5.5 SE 37 48 20 26 1018.2 1018.1 0.0
21/11:00am 27.5 23.7 19.0 59 5.5 SE 37 48 20 26 1018.5 1018.4 0.0
21/10:30am 26.8 23.4 18.9 62 5.1 SE 35 46 19 25 1018.6 1018.5 0.0
21/10:00am 26.1 22.9 18.5 63 4.8 SE 33 50 18 27 1018.7 1018.6 0.0
21/09:30am 27.0 23.9 18.8 60 5.3 SE 33 46 18 25 1018.9 1018.8 0.0
21/09:00am 26.6 23.9 19.2 64 4.8 SE 32 46 17 25 1018.9 1018.8 0.2
21/08:30am 25.7 23.1 18.6 65 4.5 SE 30 43 16 23 1018.8 1018.7 0.2
21/08:00am 25.2 22.4 18.2 65 4.4 SE 30 43 16 23 1018.5 1018.4 0.2
21/07:30am 24.6 21.5 17.6 65 4.4 SE 30 41 16 22 1018.1 1018.0 0.2
21/07:00am 23.9 20.6 16.9 65 4.3 SE 30 41 16 22 1017.8 1017.7 0.2
21/06:30am 23.5 20.7 17.3 68 3.8 SE 28 37 15 20 1017.4 1017.3 0.2
21/06:00am 23.3 20.2 16.6 66 4.1 SE 28 46 15 25 1017.2 1017.1 0.2
21/05:51am 23.3 20.3 16.8 67 4.0 SE 28 46 15 25 1017.1 1017.0 0.2
21/05:30am 23.1 21.3 17.8 72 3.3 SE 24 33 13 18 1017.0 1016.9 0.2
21/05:00am 23.3 20.7 17.7 71 3.5 SE 28 43 15 23 1016.9 1016.8 0.2
21/04:30am 23.5 20.7 18.2 72 3.3 SE 30 39 16 21 1016.6 1016.5 0.2
21/04:00am 23.8 21.7 18.0 70 3.6 SE 26 37 14 20 1016.6 1016.5 0.2
21/03:30am 23.8 21.7 18.0 70 3.6 SE 26 39 14 21 1016.2 1016.1 0.2
21/03:00am 23.7 21.4 18.4 72 3.3 SE 28 39 15 21 1016.3 1016.2 0.2
21/02:30am 23.5 22.4 19.4 78 2.6 SE 24 35 13 19 1016.5 1016.4 0.2
21/02:00am 22.9 22.9 20.2 85 1.7 ESE 20 30 11 16 1016.7 1016.6 0.2
21/01:30am 21.8 21.0 19.2 85 1.6 SE 22 30 12 16 1016.8 1016.7 0.2
21/01:00am 23.4 22.7 19.5 79 2.5 ESE 22 35 12 19 1017.1 1017.0 0.0
21/12:30am 23.1 22.1 19.7 81 2.2 ESE 24 33 13 18 1017.3 1017.2 0.0
21/12:00am 23.3 22.3 19.7 80 2.3 ESE 24 35 13 19 1017.6 1017.5 0.0
 
Date/Time
EST
Temp
°C
App
Temp
°C
Dew
Point
°C
Rel
Hum
%
Delta-T
°C
Wind Press
QNH
hPa
Press
MSL
hPa
Rain since
9am
mm
Dir  Spd
km/h
Gust
km/h
Spd
kts
Gust
kts
20/11:30pm 23.6 22.0 19.3 77 2.7 ESE 26 37 14 20 1017.8 1017.7 0.0
20/11:00pm 23.4 21.7 19.8 80 2.3 ESE 28 43 15 23 1017.9 1017.8 0.0
20/10:30pm 23.1 22.2 19.9 82 2.1 ESE 24 39 13 21 1017.9 1017.8 0.0
20/10:00pm 23.7 22.4 19.8 79 2.5 SE 26 35 14 19 1017.8 1017.7 0.0
20/09:30pm 24.1 22.3 20.4 80 2.4 SE 30 43 16 23 1017.6 1017.5 0.0
20/09:00pm 24.0 22.1 20.1 79 2.5 SE 30 41 16 22 1017.4 1017.3 0.0
20/08:30pm 24.1 22.0 19.8 77 2.8 SE 30 39 16 21 1017.3 1017.2 0.0
20/08:00pm 24.1 21.8 19.4 75 3.0 SE 30 43 16 23 1016.9 1016.8 0.0
20/07:30pm 24.1 21.8 19.4 75 3.0 SE 30 41 16 22 1016.8 1016.7 0.0
20/07:00pm 24.0 22.5 19.5 76 2.9 SE 26 39 14 21 1016.5 1016.4 0.0
20/06:30pm 23.9 22.1 19.6 77 2.8 SE 28 37 15 20 1016.2 1016.1 0.0
20/06:00pm 24.1 21.6 19.8 77 2.8 SE 32 41 17 22 1016.0 1015.9 0.0
20/05:30pm 24.5 21.9 19.8 75 3.0 SE 33 44 18 24 1015.7 1015.6 0.0
20/05:00pm 24.0 21.3 19.7 77 2.8 SE 33 44 18 24 1015.6 1015.5 0.0
20/04:30pm 24.6 21.7 19.2 72 3.5 SSE 33 46 18 25 1015.5 1015.4 0.0
20/04:00pm 25.2 21.4 18.9 68 4.0 SSE 37 48 20 26 1015.4 1015.3 0.0

Other formats

Comma delimited format used in spreadsheet applications
http://www.bom.gov.au/fwo/IDQ60801/IDQ60801.94188.axf

JavaScript Object Notation format (JSON) in row-major order
http://www.bom.gov.au/fwo/IDQ60801/IDQ60801.94188.json

Data quality

Most of these data are generated automatically and are frequently updated. Quality checks on data are not normally performed. It is possible for incorrect values to appear. Refer to information at About Latest Weather Observations and please check the disclaimer before using these data.